sensor_id;sensor_type;location;lat;lon;timestamp;P1;durP1;ratioP1;P2;durP2;ratioP2
75818;SDS011;64453;51.944;9.796;2023-06-14T00:00:20;5.03;;;2.10;;
75818;SDS011;64453;51.944;9.796;2023-06-14T00:02:47;3.23;;;2.40;;
75818;SDS011;64453;51.944;9.796;2023-06-14T00:05:16;4.47;;;2.07;;
75818;SDS011;64453;51.944;9.796;2023-06-14T00:07:43;2.97;;;2.77;;
75818;SDS011;64453;51.944;9.796;2023-06-14T00:10:10;2.80;;;2.60;;
75818;SDS011;64453;51.944;9.796;2023-06-14T00:12:38;4.10;;;2.47;;
75818;SDS011;64453;51.944;9.796;2023-06-14T00:15:08;3.47;;;3.00;;
75818;SDS011;64453;51.944;9.796;2023-06-14T00:17:35;3.73;;;2.50;;
75818;SDS011;64453;51.944;9.796;2023-06-14T00:20:04;2.10;;;2.00;;
75818;SDS011;64453;51.944;9.796;2023-06-14T00:22:34;2.20;;;2.10;;
75818;SDS011;64453;51.944;9.796;2023-06-14T00:25:02;2.47;;;2.27;;
75818;SDS011;64453;51.944;9.796;2023-06-14T00:27:30;3.23;;;2.93;;
75818;SDS011;64453;51.944;9.796;2023-06-14T00:29:56;2.60;;;2.40;;
75818;SDS011;64453;51.944;9.796;2023-06-14T00:32:23;2.73;;;2.43;;
75818;SDS011;64453;51.944;9.796;2023-06-14T00:34:50;4.10;;;2.20;;
75818;SDS011;64453;51.944;9.796;2023-06-14T00:37:17;2.17;;;2.07;;
75818;SDS011;64453;51.944;9.796;2023-06-14T00:39:45;3.57;;;2.53;;
75818;SDS011;64453;51.944;9.796;2023-06-14T00:42:22;6.03;;;2.53;;
75818;SDS011;64453;51.944;9.796;2023-06-14T00:44:50;2.33;;;2.23;;
75818;SDS011;64453;51.944;9.796;2023-06-14T00:47:17;2.80;;;2.30;;
75818;SDS011;64453;51.944;9.796;2023-06-14T00:49:45;3.93;;;2.40;;
75818;SDS011;64453;51.944;9.796;2023-06-14T00:52:13;2.67;;;2.47;;
75818;SDS011;64453;51.944;9.796;2023-06-14T00:54:41;3.47;;;3.10;;
75818;SDS011;64453;51.944;9.796;2023-06-14T00:57:10;2.67;;;2.47;;
75818;SDS011;64453;51.944;9.796;2023-06-14T00:59:40;2.53;;;2.33;;
75818;SDS011;64453;51.944;9.796;2023-06-14T01:02:10;1.90;;;1.80;;
75818;SDS011;64453;51.944;9.796;2023-06-14T01:04:37;2.73;;;2.53;;
75818;SDS011;64453;51.944;9.796;2023-06-14T01:07:07;2.63;;;2.43;;
75818;SDS011;64453;51.944;9.796;2023-06-14T01:09:46;2.80;;;2.60;;
75818;SDS011;64453;51.944;9.796;2023-06-14T01:12:28;2.50;;;2.30;;
75818;SDS011;64453;51.944;9.796;2023-06-14T01:15:03;2.60;;;2.40;;
75818;SDS011;64453;51.944;9.796;2023-06-14T01:17:31;2.53;;;2.33;;
75818;SDS011;64453;51.944;9.796;2023-06-14T01:19:59;2.40;;;2.20;;
75818;SDS011;64453;51.944;9.796;2023-06-14T01:22:34;4.20;;;2.03;;
75818;SDS011;64453;51.944;9.796;2023-06-14T01:25:03;2.57;;;2.37;;
75818;SDS011;64453;51.944;9.796;2023-06-14T01:27:31;3.37;;;2.00;;
75818;SDS011;64453;51.944;9.796;2023-06-14T01:29:58;2.10;;;2.00;;
75818;SDS011;64453;51.944;9.796;2023-06-14T01:32:28;2.13;;;2.03;;
75818;SDS011;64453;51.944;9.796;2023-06-14T01:34:56;2.20;;;2.10;;
75818;SDS011;64453;51.944;9.796;2023-06-14T01:37:23;2.30;;;2.20;;
75818;SDS011;64453;51.944;9.796;2023-06-14T01:39:51;2.50;;;2.40;;
75818;SDS011;64453;51.944;9.796;2023-06-14T01:42:20;2.70;;;2.50;;
75818;SDS011;64453;51.944;9.796;2023-06-14T01:44:50;2.70;;;2.50;;
75818;SDS011;64453;51.944;9.796;2023-06-14T01:47:18;2.53;;;2.30;;
75818;SDS011;64453;51.944;9.796;2023-06-14T01:49:46;3.07;;;2.77;;
75818;SDS011;64453;51.944;9.796;2023-06-14T01:52:13;5.53;;;2.30;;
75818;SDS011;64453;51.944;9.796;2023-06-14T01:54:40;2.57;;;2.20;;
75818;SDS011;64453;51.944;9.796;2023-06-14T01:57:07;4.23;;;2.40;;
75818;SDS011;64453;51.944;9.796;2023-06-14T01:59:36;2.80;;;2.60;;
75818;SDS011;64453;51.944;9.796;2023-06-14T02:02:04;5.03;;;2.73;;
75818;SDS011;64453;51.944;9.796;2023-06-14T02:04:31;2.37;;;2.27;;
75818;SDS011;64453;51.944;9.796;2023-06-14T02:06:58;2.23;;;2.13;;
75818;SDS011;64453;51.944;9.796;2023-06-14T02:09:25;3.43;;;2.57;;
75818;SDS011;64453;51.944;9.796;2023-06-14T02:11:52;2.53;;;2.33;;
75818;SDS011;64453;51.944;9.796;2023-06-14T02:14:20;2.40;;;2.30;;
75818;SDS011;64453;51.944;9.796;2023-06-14T02:16:48;2.70;;;2.50;;
75818;SDS011;64453;51.944;9.796;2023-06-14T02:19:15;2.23;;;2.03;;
75818;SDS011;64453;51.944;9.796;2023-06-14T02:21:42;3.27;;;2.97;;
75818;SDS011;64453;51.944;9.796;2023-06-14T02:24:09;2.80;;;2.60;;
75818;SDS011;64453;51.944;9.796;2023-06-14T02:26:36;3.83;;;2.10;;
75818;SDS011;64453;51.944;9.796;2023-06-14T02:29:04;5.40;;;2.50;;
75818;SDS011;64453;51.944;9.796;2023-06-14T02:31:33;2.40;;;2.27;;
75818;SDS011;64453;51.944;9.796;2023-06-14T02:34:03;2.73;;;2.53;;
75818;SDS011;64453;51.944;9.796;2023-06-14T02:36:30;3.10;;;2.83;;
75818;SDS011;64453;51.944;9.796;2023-06-14T02:38:57;2.23;;;2.13;;
75818;SDS011;64453;51.944;9.796;2023-06-14T02:41:24;2.90;;;2.80;;
75818;SDS011;64453;51.944;9.796;2023-06-14T02:43:52;2.00;;;1.90;;
75818;SDS011;64453;51.944;9.796;2023-06-14T02:46:19;2.40;;;2.27;;
75818;SDS011;64453;51.944;9.796;2023-06-14T02:48:46;1.97;;;1.87;;
75818;SDS011;64453;51.944;9.796;2023-06-14T02:51:14;2.30;;;2.20;;
75818;SDS011;64453;51.944;9.796;2023-06-14T02:53:41;2.90;;;2.13;;
75818;SDS011;64453;51.944;9.796;2023-06-14T02:56:08;2.63;;;2.43;;
75818;SDS011;64453;51.944;9.796;2023-06-14T02:58:36;2.10;;;2.00;;
75818;SDS011;64453;51.944;9.796;2023-06-14T03:01:04;2.60;;;2.40;;
75818;SDS011;64453;51.944;9.796;2023-06-14T03:03:33;2.73;;;2.53;;
75818;SDS011;64453;51.944;9.796;2023-06-14T03:06:00;3.43;;;2.50;;
75818;SDS011;64453;51.944;9.796;2023-06-14T03:08:31;2.63;;;2.47;;
75818;SDS011;64453;51.944;9.796;2023-06-14T03:11:03;2.37;;;2.20;;
75818;SDS011;64453;51.944;9.796;2023-06-14T03:13:31;2.60;;;2.40;;
75818;SDS011;64453;51.944;9.796;2023-06-14T03:15:58;2.33;;;2.23;;
75818;SDS011;64453;51.944;9.796;2023-06-14T03:18:27;2.30;;;2.20;;
75818;SDS011;64453;51.944;9.796;2023-06-14T03:20:55;2.57;;;2.20;;
75818;SDS011;64453;51.944;9.796;2023-06-14T03:23:23;3.93;;;2.10;;
75818;SDS011;64453;51.944;9.796;2023-06-14T03:25:51;2.67;;;2.17;;
75818;SDS011;64453;51.944;9.796;2023-06-14T03:28:19;2.23;;;2.03;;
75818;SDS011;64453;51.944;9.796;2023-06-14T03:30:46;4.30;;;2.50;;
75818;SDS011;64453;51.944;9.796;2023-06-14T03:33:13;3.27;;;2.20;;
75818;SDS011;64453;51.944;9.796;2023-06-14T03:35:40;2.87;;;2.53;;
75818;SDS011;64453;51.944;9.796;2023-06-14T03:38:10;5.20;;;2.27;;
75818;SDS011;64453;51.944;9.796;2023-06-14T03:40:37;2.47;;;2.17;;
75818;SDS011;64453;51.944;9.796;2023-06-14T03:43:05;2.63;;;2.37;;
75818;SDS011;64453;51.944;9.796;2023-06-14T03:45:31;2.40;;;2.30;;
75818;SDS011;64453;51.944;9.796;2023-06-14T03:47:58;2.40;;;2.10;;
75818;SDS011;64453;51.944;9.796;2023-06-14T03:50:26;2.70;;;2.50;;
75818;SDS011;64453;51.944;9.796;2023-06-14T03:52:53;5.10;;;2.23;;
75818;SDS011;64453;51.944;9.796;2023-06-14T03:55:20;2.60;;;2.40;;
75818;SDS011;64453;51.944;9.796;2023-06-14T03:57:46;2.90;;;2.30;;
75818;SDS011;64453;51.944;9.796;2023-06-14T04:00:15;2.50;;;2.40;;
75818;SDS011;64453;51.944;9.796;2023-06-14T04:02:43;2.17;;;2.07;;
75818;SDS011;64453;51.944;9.796;2023-06-14T04:05:10;1.90;;;1.80;;
75818;SDS011;64453;51.944;9.796;2023-06-14T04:07:37;2.40;;;2.30;;
75818;SDS011;64453;51.944;9.796;2023-06-14T04:10:05;3.13;;;2.57;;
75818;SDS011;64453;51.944;9.796;2023-06-14T04:12:34;2.57;;;2.40;;
75818;SDS011;64453;51.944;9.796;2023-06-14T04:15:00;2.60;;;2.40;;
75818;SDS011;64453;51.944;9.796;2023-06-14T04:17:29;2.40;;;2.23;;
75818;SDS011;64453;51.944;9.796;2023-06-14T04:19:57;4.83;;;3.00;;
75818;SDS011;64453;51.944;9.796;2023-06-14T04:22:25;4.63;;;2.37;;
75818;SDS011;64453;51.944;9.796;2023-06-14T04:24:53;4.33;;;2.10;;
75818;SDS011;64453;51.944;9.796;2023-06-14T04:27:21;3.10;;;2.33;;
75818;SDS011;64453;51.944;9.796;2023-06-14T04:29:50;2.57;;;2.37;;
75818;SDS011;64453;51.944;9.796;2023-06-14T04:32:23;1.90;;;1.80;;
75818;SDS011;64453;51.944;9.796;2023-06-14T04:34:53;2.40;;;2.30;;
75818;SDS011;64453;51.944;9.796;2023-06-14T04:37:20;2.27;;;2.17;;
75818;SDS011;64453;51.944;9.796;2023-06-14T04:39:47;2.80;;;2.20;;
75818;SDS011;64453;51.944;9.796;2023-06-14T04:42:15;3.60;;;2.33;;
75818;SDS011;64453;51.944;9.796;2023-06-14T04:44:45;2.40;;;2.20;;
75818;SDS011;64453;51.944;9.796;2023-06-14T04:47:14;2.13;;;2.03;;
75818;SDS011;64453;51.944;9.796;2023-06-14T04:49:42;2.17;;;1.90;;
75818;SDS011;64453;51.944;9.796;2023-06-14T04:52:11;4.70;;;2.40;;
75818;SDS011;64453;51.944;9.796;2023-06-14T04:54:38;3.50;;;2.83;;
75818;SDS011;64453;51.944;9.796;2023-06-14T04:57:06;3.07;;;2.40;;
75818;SDS011;64453;51.944;9.796;2023-06-14T04:59:34;2.50;;;1.90;;
75818;SDS011;64453;51.944;9.796;2023-06-14T05:02:01;1.90;;;1.80;;
75818;SDS011;64453;51.944;9.796;2023-06-14T05:04:28;2.70;;;2.10;;
75818;SDS011;64453;51.944;9.796;2023-06-14T05:06:55;2.37;;;2.17;;
75818;SDS011;64453;51.944;9.796;2023-06-14T05:09:23;2.20;;;2.10;;
75818;SDS011;64453;51.944;9.796;2023-06-14T05:11:50;1.90;;;1.80;;
75818;SDS011;64453;51.944;9.796;2023-06-14T05:14:17;2.17;;;2.07;;
75818;SDS011;64453;51.944;9.796;2023-06-14T05:16:45;1.83;;;1.57;;
75818;SDS011;64453;51.944;9.796;2023-06-14T05:19:13;3.13;;;2.20;;
75818;SDS011;64453;51.944;9.796;2023-06-14T05:21:43;2.77;;;1.87;;
75818;SDS011;64453;51.944;9.796;2023-06-14T05:24:10;2.07;;;1.90;;
75818;SDS011;64453;51.944;9.796;2023-06-14T05:26:38;2.30;;;2.07;;
75818;SDS011;64453;51.944;9.796;2023-06-14T05:29:05;2.30;;;2.17;;
75818;SDS011;64453;51.944;9.796;2023-06-14T05:31:33;1.80;;;1.70;;
75818;SDS011;64453;51.944;9.796;2023-06-14T05:34:00;1.60;;;1.50;;
75818;SDS011;64453;51.944;9.796;2023-06-14T05:36:27;1.77;;;1.67;;
75818;SDS011;64453;51.944;9.796;2023-06-14T05:38:54;1.97;;;1.87;;
75818;SDS011;64453;51.944;9.796;2023-06-14T05:41:23;2.80;;;2.10;;
75818;SDS011;64453;51.944;9.796;2023-06-14T05:43:52;1.37;;;1.20;;
75818;SDS011;64453;51.944;9.796;2023-06-14T05:46:20;1.90;;;1.70;;
75818;SDS011;64453;51.944;9.796;2023-06-14T05:48:49;1.40;;;1.30;;
75818;SDS011;64453;51.944;9.796;2023-06-14T05:51:16;2.23;;;2.03;;
75818;SDS011;64453;51.944;9.796;2023-06-14T05:53:44;3.90;;;1.80;;
75818;SDS011;64453;51.944;9.796;2023-06-14T05:56:12;2.10;;;2.00;;
75818;SDS011;64453;51.944;9.796;2023-06-14T05:58:38;3.33;;;2.07;;
75818;SDS011;64453;51.944;9.796;2023-06-14T06:01:07;1.70;;;1.60;;
75818;SDS011;64453;51.944;9.796;2023-06-14T06:03:34;1.63;;;1.53;;
75818;SDS011;64453;51.944;9.796;2023-06-14T06:06:01;1.80;;;1.70;;
75818;SDS011;64453;51.944;9.796;2023-06-14T06:08:29;4.43;;;1.60;;
75818;SDS011;64453;51.944;9.796;2023-06-14T06:10:56;3.20;;;2.00;;
75818;SDS011;64453;51.944;9.796;2023-06-14T06:13:23;2.00;;;1.90;;
75818;SDS011;64453;51.944;9.796;2023-06-14T06:15:50;2.10;;;2.00;;
75818;SDS011;64453;51.944;9.796;2023-06-14T06:18:18;2.20;;;2.00;;
75818;SDS011;64453;51.944;9.796;2023-06-14T06:20:45;1.43;;;1.43;;
75818;SDS011;64453;51.944;9.796;2023-06-14T06:23:12;1.93;;;1.83;;
75818;SDS011;64453;51.944;9.796;2023-06-14T06:25:39;1.60;;;1.50;;
75818;SDS011;64453;51.944;9.796;2023-06-14T06:28:06;1.83;;;1.60;;
75818;SDS011;64453;51.944;9.796;2023-06-14T06:30:33;1.90;;;1.80;;
75818;SDS011;64453;51.944;9.796;2023-06-14T06:33:02;1.50;;;1.40;;
75818;SDS011;64453;51.944;9.796;2023-06-14T06:35:30;6.40;;;1.80;;
75818;SDS011;64453;51.944;9.796;2023-06-14T06:37:58;2.20;;;1.90;;
75818;SDS011;64453;51.944;9.796;2023-06-14T06:40:26;1.53;;;1.43;;
75818;SDS011;64453;51.944;9.796;2023-06-14T06:42:53;3.80;;;1.70;;
75818;SDS011;64453;51.944;9.796;2023-06-14T06:45:20;1.93;;;1.80;;
75818;SDS011;64453;51.944;9.796;2023-06-14T06:47:48;4.37;;;1.33;;
75818;SDS011;64453;51.944;9.796;2023-06-14T06:50:15;1.40;;;1.40;;
75818;SDS011;64453;51.944;9.796;2023-06-14T06:52:45;6.03;;;1.87;;
75818;SDS011;64453;51.944;9.796;2023-06-14T06:55:12;1.63;;;1.53;;
75818;SDS011;64453;51.944;9.796;2023-06-14T06:57:39;1.77;;;1.67;;
75818;SDS011;64453;51.944;9.796;2023-06-14T07:00:07;1.60;;;1.50;;
75818;SDS011;64453;51.944;9.796;2023-06-14T07:02:35;1.80;;;1.70;;
75818;SDS011;64453;51.944;9.796;2023-06-14T07:05:03;2.17;;;1.87;;
75818;SDS011;64453;51.944;9.796;2023-06-14T07:07:31;1.70;;;1.60;;
75818;SDS011;64453;51.944;9.796;2023-06-14T07:09:59;2.00;;;1.90;;
75818;SDS011;64453;51.944;9.796;2023-06-14T07:12:29;2.20;;;1.80;;
75818;SDS011;64453;51.944;9.796;2023-06-14T07:14:58;1.93;;;1.83;;
75818;SDS011;64453;51.944;9.796;2023-06-14T07:17:26;3.13;;;1.70;;
75818;SDS011;64453;51.944;9.796;2023-06-14T07:19:53;2.03;;;1.93;;
75818;SDS011;64453;51.944;9.796;2023-06-14T07:22:20;2.00;;;1.90;;
75818;SDS011;64453;51.944;9.796;2023-06-14T07:24:46;2.50;;;1.80;;
75818;SDS011;64453;51.944;9.796;2023-06-14T07:27:14;1.70;;;1.63;;
75818;SDS011;64453;51.944;9.796;2023-06-14T07:29:41;1.97;;;1.63;;
75818;SDS011;64453;51.944;9.796;2023-06-14T07:32:08;1.80;;;1.70;;
75818;SDS011;64453;51.944;9.796;2023-06-14T07:34:35;2.03;;;1.83;;
75818;SDS011;64453;51.944;9.796;2023-06-14T07:37:02;2.47;;;2.27;;
75818;SDS011;64453;51.944;9.796;2023-06-14T07:39:30;1.90;;;1.80;;
75818;SDS011;64453;51.944;9.796;2023-06-14T07:41:57;1.60;;;1.47;;
75818;SDS011;64453;51.944;9.796;2023-06-14T07:44:25;1.67;;;1.57;;
75818;SDS011;64453;51.944;9.796;2023-06-14T07:46:56;1.80;;;1.70;;
75818;SDS011;64453;51.944;9.796;2023-06-14T07:49:24;2.20;;;2.10;;
75818;SDS011;64453;51.944;9.796;2023-06-14T07:51:52;1.53;;;1.43;;
75818;SDS011;64453;51.944;9.796;2023-06-14T07:54:18;1.43;;;1.43;;
75818;SDS011;64453;51.944;9.796;2023-06-14T07:56:49;1.87;;;1.80;;
75818;SDS011;64453;51.944;9.796;2023-06-14T07:59:16;2.20;;;2.10;;
75818;SDS011;64453;51.944;9.796;2023-06-14T08:01:44;2.97;;;1.83;;
75818;SDS011;64453;51.944;9.796;2023-06-14T08:04:13;2.20;;;1.93;;
75818;SDS011;64453;51.944;9.796;2023-06-14T08:06:40;1.77;;;1.70;;
75818;SDS011;64453;51.944;9.796;2023-06-14T08:09:09;2.03;;;1.93;;
75818;SDS011;64453;51.944;9.796;2023-06-14T08:11:36;1.87;;;1.77;;
75818;SDS011;64453;51.944;9.796;2023-06-14T08:14:03;2.77;;;2.47;;
75818;SDS011;64453;51.944;9.796;2023-06-14T08:16:30;1.87;;;1.77;;
75818;SDS011;64453;51.944;9.796;2023-06-14T08:18:59;1.80;;;1.70;;
75818;SDS011;64453;51.944;9.796;2023-06-14T08:21:26;1.87;;;1.77;;
75818;SDS011;64453;51.944;9.796;2023-06-14T08:23:54;1.90;;;1.80;;
75818;SDS011;64453;51.944;9.796;2023-06-14T08:26:21;2.17;;;1.83;;
75818;SDS011;64453;51.944;9.796;2023-06-14T08:28:48;2.00;;;1.80;;
75818;SDS011;64453;51.944;9.796;2023-06-14T08:31:15;1.70;;;1.60;;
75818;SDS011;64453;51.944;9.796;2023-06-14T08:33:42;2.00;;;1.90;;
75818;SDS011;64453;51.944;9.796;2023-06-14T08:36:10;1.97;;;1.70;;
75818;SDS011;64453;51.944;9.796;2023-06-14T08:38:37;2.00;;;1.90;;
75818;SDS011;64453;51.944;9.796;2023-06-14T08:41:05;3.30;;;1.90;;
75818;SDS011;64453;51.944;9.796;2023-06-14T08:43:32;1.77;;;1.67;;
75818;SDS011;64453;51.944;9.796;2023-06-14T08:46:00;2.70;;;2.10;;
75818;SDS011;64453;51.944;9.796;2023-06-14T08:48:30;1.40;;;1.40;;
75818;SDS011;64453;51.944;9.796;2023-06-14T08:50:59;2.03;;;1.83;;
75818;SDS011;64453;51.944;9.796;2023-06-14T08:53:28;1.73;;;1.63;;
75818;SDS011;64453;51.944;9.796;2023-06-14T08:55:59;3.30;;;1.97;;
75818;SDS011;64453;51.944;9.796;2023-06-14T08:58:27;2.73;;;1.50;;
75818;SDS011;64453;51.944;9.796;2023-06-14T09:00:54;1.87;;;1.77;;
75818;SDS011;64453;51.944;9.796;2023-06-14T09:03:22;1.37;;;1.37;;
75818;SDS011;64453;51.944;9.796;2023-06-14T09:05:55;2.43;;;1.90;;
75818;SDS011;64453;51.944;9.796;2023-06-14T09:08:24;2.00;;;1.90;;
75818;SDS011;64453;51.944;9.796;2023-06-14T09:10:52;2.17;;;2.07;;
75818;SDS011;64453;51.944;9.796;2023-06-14T09:13:20;1.80;;;1.70;;
75818;SDS011;64453;51.944;9.796;2023-06-14T09:15:47;1.80;;;1.53;;
75818;SDS011;64453;51.944;9.796;2023-06-14T09:18:14;1.70;;;1.67;;
75818;SDS011;64453;51.944;9.796;2023-06-14T09:20:41;1.67;;;1.67;;
75818;SDS011;64453;51.944;9.796;2023-06-14T09:23:09;1.97;;;1.87;;
75818;SDS011;64453;51.944;9.796;2023-06-14T09:25:45;2.73;;;1.90;;
75818;SDS011;64453;51.944;9.796;2023-06-14T09:28:14;1.63;;;1.57;;
75818;SDS011;64453;51.944;9.796;2023-06-14T09:30:40;1.30;;;1.30;;
75818;SDS011;64453;51.944;9.796;2023-06-14T09:33:07;1.60;;;1.40;;
75818;SDS011;64453;51.944;9.796;2023-06-14T09:35:34;1.70;;;1.60;;
75818;SDS011;64453;51.944;9.796;2023-06-14T09:38:01;1.73;;;1.63;;
75818;SDS011;64453;51.944;9.796;2023-06-14T09:40:29;1.57;;;1.47;;
75818;SDS011;64453;51.944;9.796;2023-06-14T09:43:02;1.70;;;1.60;;
75818;SDS011;64453;51.944;9.796;2023-06-14T09:45:34;4.10;;;1.60;;
75818;SDS011;64453;51.944;9.796;2023-06-14T09:48:02;1.60;;;1.50;;
75818;SDS011;64453;51.944;9.796;2023-06-14T09:50:30;1.50;;;1.40;;
75818;SDS011;64453;51.944;9.796;2023-06-14T09:52:57;2.10;;;2.00;;
75818;SDS011;64453;51.944;9.796;2023-06-14T09:55:30;1.50;;;1.50;;
75818;SDS011;64453;51.944;9.796;2023-06-14T09:57:57;1.83;;;1.73;;
75818;SDS011;64453;51.944;9.796;2023-06-14T10:00:27;1.80;;;1.70;;
75818;SDS011;64453;51.944;9.796;2023-06-14T10:02:58;1.50;;;1.50;;
75818;SDS011;64453;51.944;9.796;2023-06-14T10:05:32;1.33;;;1.30;;
75818;SDS011;64453;51.944;9.796;2023-06-14T10:08:04;1.60;;;1.50;;
75818;SDS011;64453;51.944;9.796;2023-06-14T10:10:34;5.60;;;2.00;;
75818;SDS011;64453;51.944;9.796;2023-06-14T10:13:02;1.77;;;1.67;;
75818;SDS011;64453;51.944;9.796;2023-06-14T10:15:30;1.57;;;1.50;;
75818;SDS011;64453;51.944;9.796;2023-06-14T10:18:09;1.73;;;1.63;;
75818;SDS011;64453;51.944;9.796;2023-06-14T10:20:48;1.90;;;1.80;;
75818;SDS011;64453;51.944;9.796;2023-06-14T10:23:24;2.10;;;2.00;;
75818;SDS011;64453;51.944;9.796;2023-06-14T10:25:54;4.03;;;1.70;;
75818;SDS011;64453;51.944;9.796;2023-06-14T10:28:25;1.60;;;1.50;;
75818;SDS011;64453;51.944;9.796;2023-06-14T10:31:02;1.90;;;1.80;;
75818;SDS011;64453;51.944;9.796;2023-06-14T10:33:35;1.37;;;1.33;;
75818;SDS011;64453;51.944;9.796;2023-06-14T10:36:09;4.23;;;1.73;;
75818;SDS011;64453;51.944;9.796;2023-06-14T10:38:56;1.67;;;1.60;;
75818;SDS011;64453;51.944;9.796;2023-06-14T10:41:25;1.30;;;1.30;;
75818;SDS011;64453;51.944;9.796;2023-06-14T10:46:59;2.97;;;1.67;;
75818;SDS011;64453;51.944;9.796;2023-06-14T10:49:38;1.40;;;1.30;;
75818;SDS011;64453;51.944;9.796;2023-06-14T10:52:08;1.80;;;1.70;;
75818;SDS011;64453;51.944;9.796;2023-06-14T10:57:36;1.20;;;1.20;;
75818;SDS011;64453;51.944;9.796;2023-06-14T11:00:05;1.53;;;1.50;;
75818;SDS011;64453;51.944;9.796;2023-06-14T11:03:08;1.37;;;1.27;;
75818;SDS011;64453;51.944;9.796;2023-06-14T11:06:19;1.70;;;1.57;;
75818;SDS011;64453;51.944;9.796;2023-06-14T11:11:50;1.20;;;1.20;;
75818;SDS011;64453;51.944;9.796;2023-06-14T11:14:20;1.30;;;1.20;;
75818;SDS011;64453;51.944;9.796;2023-06-14T11:16:50;1.90;;;1.60;;
75818;SDS011;64453;51.944;9.796;2023-06-14T11:19:17;1.27;;;1.17;;
75818;SDS011;64453;51.944;9.796;2023-06-14T11:21:48;1.43;;;1.33;;
75818;SDS011;64453;51.944;9.796;2023-06-14T11:24:16;1.73;;;1.47;;
75818;SDS011;64453;51.944;9.796;2023-06-14T11:26:43;1.23;;;1.23;;
75818;SDS011;64453;51.944;9.796;2023-06-14T11:29:10;1.33;;;1.33;;
75818;SDS011;64453;51.944;9.796;2023-06-14T11:31:37;1.40;;;1.30;;
75818;SDS011;64453;51.944;9.796;2023-06-14T11:34:04;1.60;;;1.50;;
75818;SDS011;64453;51.944;9.796;2023-06-14T11:36:33;1.77;;;1.40;;
75818;SDS011;64453;51.944;9.796;2023-06-14T11:39:02;1.40;;;1.30;;
75818;SDS011;64453;51.944;9.796;2023-06-14T11:41:32;1.57;;;1.47;;
75818;SDS011;64453;51.944;9.796;2023-06-14T11:44:03;1.57;;;1.47;;
75818;SDS011;64453;51.944;9.796;2023-06-14T11:46:31;1.50;;;1.50;;
75818;SDS011;64453;51.944;9.796;2023-06-14T11:48:58;4.23;;;1.40;;
75818;SDS011;64453;51.944;9.796;2023-06-14T11:51:28;1.50;;;1.40;;
75818;SDS011;64453;51.944;9.796;2023-06-14T11:53:55;1.80;;;1.70;;
75818;SDS011;64453;51.944;9.796;2023-06-14T11:56:25;2.00;;;1.38;;
75818;SDS011;64453;51.944;9.796;2023-06-14T11:58:52;1.73;;;1.42;;
75818;SDS011;64453;51.944;9.796;2023-06-14T12:01:21;1.90;;;1.80;;
75818;SDS011;64453;51.944;9.796;2023-06-14T12:03:49;1.63;;;1.52;;
75818;SDS011;64453;51.944;9.796;2023-06-14T12:06:16;2.27;;;1.50;;
75818;SDS011;64453;51.944;9.796;2023-06-14T12:08:55;1.47;;;1.47;;
75818;SDS011;64453;51.944;9.796;2023-06-14T12:11:22;1.85;;;1.75;;
75818;SDS011;64453;51.944;9.796;2023-06-14T12:13:52;1.80;;;1.70;;
75818;SDS011;64453;51.944;9.796;2023-06-14T12:16:19;1.42;;;1.40;;
75818;SDS011;64453;51.944;9.796;2023-06-14T12:18:46;2.03;;;1.80;;
75818;SDS011;64453;51.944;9.796;2023-06-14T12:21:13;1.73;;;1.73;;
75818;SDS011;64453;51.944;9.796;2023-06-14T12:23:42;2.05;;;1.92;;
75818;SDS011;64453;51.944;9.796;2023-06-14T12:26:12;4.80;;;1.90;;
75818;SDS011;64453;51.944;9.796;2023-06-14T12:28:42;1.60;;;1.50;;
75818;SDS011;64453;51.944;9.796;2023-06-14T12:31:11;1.77;;;1.60;;
75818;SDS011;64453;51.944;9.796;2023-06-14T12:33:38;1.75;;;1.65;;
75818;SDS011;64453;51.944;9.796;2023-06-14T12:36:06;3.10;;;1.60;;
75818;SDS011;64453;51.944;9.796;2023-06-14T12:38:35;1.80;;;1.70;;
75818;SDS011;64453;51.944;9.796;2023-06-14T12:41:02;1.52;;;1.52;;
75818;SDS011;64453;51.944;9.796;2023-06-14T12:43:29;3.50;;;1.92;;
75818;SDS011;64453;51.944;9.796;2023-06-14T12:45:58;2.17;;;2.08;;
75818;SDS011;64453;51.944;9.796;2023-06-14T12:48:25;2.30;;;2.10;;
75818;SDS011;64453;51.944;9.796;2023-06-14T12:50:52;3.42;;;2.47;;
75818;SDS011;64453;51.944;9.796;2023-06-14T12:53:19;2.45;;;1.88;;
75818;SDS011;64453;51.944;9.796;2023-06-14T12:55:46;2.70;;;2.17;;
75818;SDS011;64453;51.944;9.796;2023-06-14T12:58:13;2.50;;;2.30;;
75818;SDS011;64453;51.944;9.796;2023-06-14T13:00:42;2.22;;;1.80;;
75818;SDS011;64453;51.944;9.796;2023-06-14T13:03:10;2.30;;;2.20;;
75818;SDS011;64453;51.944;9.796;2023-06-14T13:05:37;3.70;;;2.17;;
75818;SDS011;64453;51.944;9.796;2023-06-14T13:08:06;2.05;;;1.90;;
75818;SDS011;64453;51.944;9.796;2023-06-14T13:10:34;1.90;;;1.80;;
75818;SDS011;64453;51.944;9.796;2023-06-14T13:13:01;3.78;;;2.42;;
75818;SDS011;64453;51.944;9.796;2023-06-14T13:15:28;2.25;;;2.05;;
75818;SDS011;64453;51.944;9.796;2023-06-14T13:17:57;4.35;;;2.08;;
75818;SDS011;64453;51.944;9.796;2023-06-14T13:20:25;3.72;;;2.25;;
75818;SDS011;64453;51.944;9.796;2023-06-14T13:22:52;2.33;;;2.13;;
75818;SDS011;64453;51.944;9.796;2023-06-14T13:25:19;4.30;;;2.50;;
75818;SDS011;64453;51.944;9.796;2023-06-14T13:27:47;3.03;;;2.08;;
75818;SDS011;64453;51.944;9.796;2023-06-14T13:30:14;1.77;;;1.67;;
75818;SDS011;64453;51.944;9.796;2023-06-14T13:32:42;1.92;;;1.83;;
75818;SDS011;64453;51.944;9.796;2023-06-14T13:35:09;2.00;;;1.90;;
75818;SDS011;64453;51.944;9.796;2023-06-14T13:37:37;2.20;;;1.95;;
75818;SDS011;64453;51.944;9.796;2023-06-14T13:40:05;1.83;;;1.73;;
75818;SDS011;64453;51.944;9.796;2023-06-14T13:42:33;6.78;;;2.15;;
75818;SDS011;64453;51.944;9.796;2023-06-14T13:45:01;3.55;;;2.05;;
75818;SDS011;64453;51.944;9.796;2023-06-14T13:47:28;2.20;;;2.10;;
75818;SDS011;64453;51.944;9.796;2023-06-14T13:49:56;1.80;;;1.70;;
75818;SDS011;64453;51.944;9.796;2023-06-14T13:52:23;2.05;;;1.95;;
75818;SDS011;64453;51.944;9.796;2023-06-14T13:54:51;3.60;;;2.05;;
75818;SDS011;64453;51.944;9.796;2023-06-14T13:57:18;2.38;;;2.17;;
75818;SDS011;64453;51.944;9.796;2023-06-14T13:59:46;2.35;;;1.70;;
75818;SDS011;64453;51.944;9.796;2023-06-14T14:02:13;2.75;;;2.15;;
75818;SDS011;64453;51.944;9.796;2023-06-14T14:04:40;3.63;;;2.40;;
75818;SDS011;64453;51.944;9.796;2023-06-14T14:07:07;3.83;;;2.58;;
75818;SDS011;64453;51.944;9.796;2023-06-14T14:09:34;3.70;;;2.05;;
75818;SDS011;64453;51.944;9.796;2023-06-14T14:12:04;3.28;;;2.63;;
75818;SDS011;64453;51.944;9.796;2023-06-14T14:14:32;2.45;;;2.00;;
75818;SDS011;64453;51.944;9.796;2023-06-14T14:16:59;2.65;;;2.33;;
75818;SDS011;64453;51.944;9.796;2023-06-14T14:19:26;3.17;;;2.97;;
75818;SDS011;64453;51.944;9.796;2023-06-14T14:21:52;2.30;;;2.10;;
75818;SDS011;64453;51.944;9.796;2023-06-14T14:24:19;2.42;;;2.22;;
75818;SDS011;64453;51.944;9.796;2023-06-14T14:26:46;4.88;;;2.72;;
75818;SDS011;64453;51.944;9.796;2023-06-14T14:29:15;2.25;;;2.15;;
75818;SDS011;64453;51.944;9.796;2023-06-14T14:31:43;2.90;;;2.70;;
75818;SDS011;64453;51.944;9.796;2023-06-14T14:34:09;3.33;;;3.08;;
75818;SDS011;64453;51.944;9.796;2023-06-14T14:36:36;2.30;;;2.20;;
75818;SDS011;64453;51.944;9.796;2023-06-14T14:39:07;2.17;;;2.08;;
75818;SDS011;64453;51.944;9.796;2023-06-14T14:41:34;5.85;;;2.35;;
75818;SDS011;64453;51.944;9.796;2023-06-14T14:44:02;3.72;;;2.45;;
75818;SDS011;64453;51.944;9.796;2023-06-14T14:46:32;2.35;;;2.25;;
75818;SDS011;64453;51.944;9.796;2023-06-14T14:48:59;2.25;;;2.15;;
75818;SDS011;64453;51.944;9.796;2023-06-14T14:51:26;3.50;;;2.90;;
75818;SDS011;64453;51.944;9.796;2023-06-14T14:53:52;3.28;;;2.30;;
75818;SDS011;64453;51.944;9.796;2023-06-14T14:56:21;2.60;;;2.45;;
75818;SDS011;64453;51.944;9.796;2023-06-14T14:58:48;2.95;;;2.20;;
75818;SDS011;64453;51.944;9.796;2023-06-14T15:01:16;3.40;;;2.40;;
75818;SDS011;64453;51.944;9.796;2023-06-14T15:03:44;3.25;;;2.40;;